Time;durP1;ratioP1;P1;durP2;ratioP2;P2;SDS_P1;SDS_P2;PMS_P1;PMS_P2;Temp;Humidity;BMP_temperature;BMP_pressure;BME280_temperature;BME280_humidity;BME280_pressure;Samples;Min_cycle;Max_cycle;Signal;HPM_P1;HPM_P2
2023/03/18 00:00:52;;;;;;;65.50;15.70;;;;;;;;;;5077675;28;20195;-41
2023/03/18 00:03:19;;;;;;;43.47;11.93;;;;;;;;;;5077652;28;20195;-42
2023/03/18 00:05:46;;;;;;;42.47;10.97;;;;;;;;;;5078081;28;20218;-42
2023/03/18 00:08:21;;;;;;;27.73;9.70;;;;;;;;;;5077671;28;20551;-42
2023/03/18 00:10:49;;;;;;;34.70;11.87;;;;;;;;;;5077682;28;20205;-42
2023/03/18 00:13:17;;;;;;;97.17;32.80;;;;;;;;;;5077536;28;20203;-41
2023/03/18 00:15:44;;;;;;;80.67;20.87;;;;;;;;;;5077614;28;20234;-42
2023/03/18 00:18:11;;;;;;;55.13;12.53;;;;;;;;;;5077262;28;20656;-41
2023/03/18 00:20:39;;;;;;;30.13;9.70;;;;;;;;;;5077477;28;20211;-42
2023/03/18 00:23:07;;;;;;;48.03;13.07;;;;;;;;;;5077416;28;20645;-42
2023/03/18 00:25:36;;;;;;;28.77;9.83;;;;;;;;;;5077524;28;20560;-42
2023/03/18 00:28:05;;;;;;;30.77;9.90;;;;;;;;;;5088075;28;20211;-42
2023/03/18 00:30:33;;;;;;;38.87;11.63;;;;;;;;;;5076528;28;20273;-42
2023/03/18 00:33:00;;;;;;;806.93;351.67;;;;;;;;;;5076399;28;20227;-42
2023/03/18 00:35:29;;;;;;;772.47;385.37;;;;;;;;;;5090637;28;20582;-43
2023/03/18 00:37:57;;;;;;;271.23;78.37;;;;;;;;;;5096259;28;20206;-42
2023/03/18 00:40:41;;;;;;;63.00;20.53;;;;;;;;;;5097399;28;20206;-41
2023/03/18 00:43:10;;;;;;;112.73;24.00;;;;;;;;;;5097526;28;20191;-42
2023/03/18 00:45:39;;;;;;;37.43;10.63;;;;;;;;;;5096185;28;20218;-41
2023/03/18 00:48:07;;;;;;;31.00;10.27;;;;;;;;;;5097048;28;20306;-42
2023/03/18 00:50:36;;;;;;;50.03;11.80;;;;;;;;;;5096253;28;20198;-42
2023/03/18 00:53:03;;;;;;;32.63;9.83;;;;;;;;;;5096425;28;20195;-42
2023/03/18 00:55:31;;;;;;;146.47;45.23;;;;;;;;;;5096121;28;20219;-42
2023/03/18 00:57:58;;;;;;;129.43;41.43;;;;;;;;;;5096002;28;20199;-43
2023/03/18 01:00:26;;;;;;;88.93;21.47;;;;;;;;;;5096116;28;20285;-41
2023/03/18 01:02:53;;;;;;;68.37;15.83;;;;;;;;;;5096512;28;20295;-42
2023/03/18 01:05:21;;;;;;;55.57;13.20;;;;;;;;;;5097543;28;20206;-42
2023/03/18 01:07:48;;;;;;;42.83;11.33;;;;;;;;;;5095774;28;20199;-42
2023/03/18 01:10:16;;;;;;;33.33;10.37;;;;;;;;;;5096452;28;20769;-42
2023/03/18 01:12:47;;;;;;;25.63;9.13;;;;;;;;;;5096566;28;20213;-41
2023/03/18 01:15:17;;;;;;;128.37;34.87;;;;;;;;;;5096588;28;20229;-42
2023/03/18 01:17:45;;;;;;;115.60;34.37;;;;;;;;;;5096725;28;20224;-42
2023/03/18 01:20:16;;;;;;;103.40;21.43;;;;;;;;;;5095681;28;20202;-42
2023/03/18 01:22:49;;;;;;;81.50;17.43;;;;;;;;;;5096106;28;20210;-41
2023/03/18 01:25:17;;;;;;;28.60;8.13;;;;;;;;;;5095477;28;20659;-42
2023/03/18 01:27:49;;;;;;;36.60;10.30;;;;;;;;;;5095606;28;20210;-42
2023/03/18 01:30:16;;;;;;;33.77;10.30;;;;;;;;;;5096517;28;20217;-43
2023/03/18 01:32:43;;;;;;;34.93;10.77;;;;;;;;;;5096623;28;20209;-42
2023/03/18 01:35:11;;;;;;;174.43;46.67;;;;;;;;;;5096038;28;20223;-42
2023/03/18 01:37:45;;;;;;;106.60;33.67;;;;;;;;;;5095534;28;20222;-42
2023/03/18 01:40:14;;;;;;;65.50;17.83;;;;;;;;;;5095369;28;20211;-43
2023/03/18 01:42:48;;;;;;;92.00;17.83;;;;;;;;;;5095493;28;20210;-45
2023/03/18 01:45:24;;;;;;;62.90;14.03;;;;;;;;;;5095015;28;20601;-42
2023/03/18 01:47:56;;;;;;;41.40;10.33;;;;;;;;;;5095520;28;20198;-42
2023/03/18 01:50:27;;;;;;;40.40;9.27;;;;;;;;;;5095004;28;20199;-42
2023/03/18 01:53:05;;;;;;;43.17;10.53;;;;;;;;;;5078231;28;20241;-42
2023/03/18 01:55:33;;;;;;;401.53;112.37;;;;;;;;;;5078327;28;20233;-42
2023/03/18 01:58:03;;;;;;;1407.67;544.80;;;;;;;;;;5094836;28;20198;-43
2023/03/18 02:00:31;;;;;;;343.43;123.43;;;;;;;;;;5095022;28;20202;-43
2023/03/18 02:02:59;;;;;;;142.33;44.30;;;;;;;;;;5078278;28;20238;-43
2023/03/18 02:05:27;;;;;;;70.63;19.07;;;;;;;;;;5094850;28;20213;-42
2023/03/18 02:07:54;;;;;;;50.07;12.57;;;;;;;;;;5095763;28;20213;-42
2023/03/18 02:10:24;;;;;;;39.93;11.13;;;;;;;;;;5095840;28;20206;-41
2023/03/18 02:12:57;;;;;;;23.33;8.43;;;;;;;;;;5078374;28;20206;-42
2023/03/18 02:15:31;;;;;;;28.20;9.23;;;;;;;;;;5094703;28;20287;-42
2023/03/18 02:18:04;;;;;;;21.20;7.00;;;;;;;;;;5094674;28;20209;-42
2023/03/18 02:20:44;;;;;;;125.17;44.73;;;;;;;;;;5095269;28;20209;-42
2023/03/18 02:23:39;;;;;;;33.20;11.40;;;;;;;;;;5094768;28;20228;-41
2023/03/18 02:26:12;;;;;;;45.87;11.13;;;;;;;;;;5094619;28;20203;-42
2023/03/18 02:28:40;;;;;;;54.33;12.27;;;;;;;;;;5094581;28;20207;-42
2023/03/18 02:31:10;;;;;;;32.67;9.83;;;;;;;;;;5077678;28;20206;-41
2023/03/18 02:33:41;;;;;;;30.00;9.20;;;;;;;;;;5078207;28;20203;-42
2023/03/18 02:36:12;;;;;;;27.50;8.37;;;;;;;;;;5094355;28;20222;-42
2023/03/18 02:38:43;;;;;;;33.10;7.73;;;;;;;;;;5077973;28;20195;-41
2023/03/18 02:41:20;;;;;;;125.37;41.50;;;;;;;;;;5094109;28;20244;-42
2023/03/18 02:43:49;;;;;;;75.93;20.53;;;;;;;;;;5094672;28;20623;-42
2023/03/18 02:46:55;;;;;;;66.37;14.57;;;;;;;;;;5094157;28;20656;-42
2023/03/18 02:49:25;;;;;;;67.60;14.17;;;;;;;;;;5089823;28;20213;-42
2023/03/18 02:51:53;;;;;;;57.10;12.37;;;;;;;;;;5077832;28;20205;-42
2023/03/18 02:54:23;;;;;;;40.67;9.50;;;;;;;;;;5094337;28;20271;-42
2023/03/18 02:56:50;;;;;;;42.03;9.83;;;;;;;;;;5093955;28;20229;-42
2023/03/18 02:59:19;;;;;;;488.53;142.73;;;;;;;;;;5094852;28;20212;-41
2023/03/18 03:01:49;;;;;;;132.80;35.97;;;;;;;;;;5093893;28;20241;-42
2023/03/18 03:04:18;;;;;;;105.03;22.17;;;;;;;;;;5094109;28;20218;-42
2023/03/18 03:06:46;;;;;;;86.97;16.93;;;;;;;;;;5094019;28;20207;-41
2023/03/18 03:09:16;;;;;;;69.53;13.70;;;;;;;;;;5093805;28;20194;-42
2023/03/18 03:11:45;;;;;;;55.80;12.93;;;;;;;;;;5094864;28;20209;-45
2023/03/18 03:14:16;;;;;;;48.67;11.53;;;;;;;;;;5094020;28;20187;-42
2023/03/18 03:16:47;;;;;;;43.40;10.83;;;;;;;;;;5094577;28;20275;-42
2023/03/18 03:19:15;;;;;;;926.90;357.63;;;;;;;;;;5094231;28;20294;-42
2023/03/18 03:21:43;;;;;;;172.10;52.33;;;;;;;;;;5095078;28;20203;-42
2023/03/18 03:24:10;;;;;;;163.50;33.07;;;;;;;;;;5093817;28;20195;-42
2023/03/18 03:26:39;;;;;;;1879.53;719.40;;;;;;;;;;5084670;28;20536;-43
2023/03/18 03:29:06;;;;;;;625.33;230.70;;;;;;;;;;5073322;28;20199;-42
2023/03/18 03:31:34;;;;;;;133.53;42.37;;;;;;;;;;5073219;28;20211;-43
2023/03/18 03:34:03;;;;;;;79.60;24.37;;;;;;;;;;5074990;28;20218;-42
2023/03/18 03:36:30;;;;;;;79.57;20.00;;;;;;;;;;5077066;28;20568;-42
2023/03/18 03:38:57;;;;;;;68.33;14.77;;;;;;;;;;5077536;28;20260;-42
2023/03/18 03:41:25;;;;;;;38.50;10.27;;;;;;;;;;5077375;28;20207;-42
2023/03/18 03:43:52;;;;;;;27.83;8.53;;;;;;;;;;5077014;28;20207;-42
2023/03/18 03:46:19;;;;;;;33.00;9.17;;;;;;;;;;5078169;28;20203;-42
2023/03/18 03:48:46;;;;;;;222.27;74.10;;;;;;;;;;5094000;28;20244;-42
2023/03/18 03:51:15;;;;;;;48.57;19.53;;;;;;;;;;5076900;28;20659;-42
2023/03/18 03:53:44;;;;;;;53.33;13.90;;;;;;;;;;5077895;28;20736;-43
2023/03/18 03:56:14;;;;;;;72.43;14.87;;;;;;;;;;5076780;28;20665;-42
2023/03/18 03:58:42;;;;;;;65.60;14.23;;;;;;;;;;5093924;28;20202;-42
2023/03/18 04:01:09;;;;;;;50.40;11.67;;;;;;;;;;5076836;28;20235;-42
2023/03/18 04:03:36;;;;;;;42.70;12.13;;;;;;;;;;5076624;28;20204;-41
2023/03/18 04:06:06;;;;;;;29.27;9.43;;;;;;;;;;5076448;28;20630;-42
2023/03/18 04:08:38;;;;;;;398.63;123.17;;;;;;;;;;5077028;28;20272;-42
2023/03/18 04:11:06;;;;;;;68.83;20.87;;;;;;;;;;5076609;28;20199;-41
2023/03/18 04:13:33;;;;;;;50.93;13.23;;;;;;;;;;5076495;28;20203;-44
2023/03/18 04:16:01;;;;;;;54.73;13.40;;;;;;;;;;5089786;28;20222;-42
2023/03/18 04:18:29;;;;;;;63.53;13.47;;;;;;;;;;5093433;28;20282;-43
2023/03/18 04:20:56;;;;;;;50.83;12.53;;;;;;;;;;5094677;28;20206;-43
2023/03/18 04:23:45;;;;;;;57.53;13.10;;;;;;;;;;5089884;28;20204;-42
2023/03/18 04:26:13;;;;;;;31.13;9.43;;;;;;;;;;5093214;28;20214;-43
2023/03/18 04:28:40;;;;;;;360.50;107.70;;;;;;;;;;5092250;28;20293;-43
2023/03/18 04:31:10;;;;;;;94.10;24.37;;;;;;;;;;5093810;28;20523;-42
2023/03/18 04:33:38;;;;;;;40.17;12.43;;;;;;;;;;5095441;28;20653;-44
2023/03/18 04:36:07;;;;;;;51.67;11.70;;;;;;;;;;5096390;28;20218;-43
2023/03/18 04:38:35;;;;;;;35.27;9.70;;;;;;;;;;5096024;28;20655;-45
2023/03/18 04:41:05;;;;;;;40.23;10.03;;;;;;;;;;5096291;28;20214;-47
2023/03/18 04:43:32;;;;;;;32.10;9.90;;;;;;;;;;5096050;28;20290;-42
2023/03/18 04:46:00;;;;;;;31.23;9.97;;;;;;;;;;5095514;28;20202;-43
2023/03/18 04:48:29;;;;;;;358.40;102.70;;;;;;;;;;5095902;28;20211;-42
2023/03/18 04:50:58;;;;;;;90.13;28.23;;;;;;;;;;5095820;28;20641;-43
2023/03/18 04:53:28;;;;;;;47.90;13.70;;;;;;;;;;5090909;28;20202;-43
2023/03/18 04:55:56;;;;;;;281.57;85.27;;;;;;;;;;5093617;28;20230;-42
2023/03/18 04:58:31;;;;;;;880.80;345.20;;;;;;;;;;5094380;28;20521;-42
2023/03/18 05:01:22;;;;;;;169.47;52.73;;;;;;;;;;5092646;28;20280;-46
2023/03/18 05:03:49;;;;;;;47.73;17.40;;;;;;;;;;5087024;28;20629;-42
2023/03/18 05:06:27;;;;;;;34.37;13.13;;;;;;;;;;5094470;28;20195;-43
2023/03/18 05:08:59;;;;;;;50.27;13.27;;;;;;;;;;5091366;28;20203;-42
2023/03/18 05:11:32;;;;;;;30.17;10.17;;;;;;;;;;5091277;28;20187;-42
2023/03/18 05:14:06;;;;;;;19.73;8.70;;;;;;;;;;5094573;28;20187;-44
2023/03/18 05:16:41;;;;;;;30.77;9.70;;;;;;;;;;5092945;28;20256;-43
2023/03/18 05:19:08;;;;;;;480.30;161.33;;;;;;;;;;5094221;28;20205;-43
2023/03/18 05:21:41;;;;;;;40.33;18.40;;;;;;;;;;5094472;28;20191;-44
2023/03/18 05:24:08;;;;;;;39.70;14.20;;;;;;;;;;5094294;28;20649;-42
2023/03/18 05:26:39;;;;;;;37.47;11.60;;;;;;;;;;5095283;28;20628;-42
2023/03/18 05:29:08;;;;;;;44.40;11.00;;;;;;;;;;5095466;28;20202;-42
2023/03/18 05:31:54;;;;;;;31.57;9.93;;;;;;;;;;5089450;28;20305;-42
2023/03/18 05:34:22;;;;;;;24.93;7.77;;;;;;;;;;5084703;28;20202;-43
2023/03/18 05:36:50;;;;;;;23.87;7.47;;;;;;;;;;5091051;28;20222;-44
2023/03/18 05:39:17;;;;;;;169.67;53.13;;;;;;;;;;5091171;28;20655;-44
2023/03/18 05:41:45;;;;;;;46.33;17.50;;;;;;;;;;5093925;28;20205;-43
2023/03/18 05:44:18;;;;;;;49.67;12.90;;;;;;;;;;5093876;28;20625;-42
2023/03/18 05:46:49;;;;;;;43.53;10.87;;;;;;;;;;5085218;28;20214;-41
2023/03/18 05:49:24;;;;;;;39.00;9.43;;;;;;;;;;5086536;28;20198;-41
2023/03/18 05:52:24;;;;;;;33.40;8.80;;;;;;;;;;5073747;28;20590;-41
2023/03/18 05:54:57;;;;;;;31.77;9.63;;;;;;;;;;5057147;28;20207;-42
2023/03/18 05:57:29;;;;;;;31.37;9.40;;;;;;;;;;5049265;28;20578;-44
2023/03/18 06:00:01;;;;;;;140.57;46.00;;;;;;;;;;5056020;28;20219;-44
2023/03/18 06:02:41;;;;;;;47.63;16.77;;;;;;;;;;5072671;28;20234;-43
2023/03/18 06:05:09;;;;;;;48.33;12.63;;;;;;;;;;5072530;28;20222;-41
2023/03/18 06:07:37;;;;;;;55.23;11.77;;;;;;;;;;5072427;28;20831;-43
2023/03/18 06:10:05;;;;;;;57.43;14.30;;;;;;;;;;5045186;28;20223;-42
2023/03/18 06:12:33;;;;;;;32.77;10.10;;;;;;;;;;5061060;28;20224;-47
2023/03/18 06:15:01;;;;;;;35.23;9.13;;;;;;;;;;5055850;28;20222;-44
2023/03/18 06:17:30;;;;;;;39.87;10.63;;;;;;;;;;5054988;28;20243;-42
2023/03/18 06:19:58;;;;;;;265.53;72.87;;;;;;;;;;5044903;28;20224;-41
2023/03/18 06:22:25;;;;;;;81.10;21.93;;;;;;;;;;5052356;28;20289;-40
2023/03/18 06:24:53;;;;;;;31.40;10.87;;;;;;;;;;5035855;28;20237;-42
2023/03/18 06:27:21;;;;;;;54.67;12.73;;;;;;;;;;5056744;28;20246;-42
2023/03/18 06:29:53;;;;;;;29.27;9.60;;;;;;;;;;5073245;28;20223;-42
2023/03/18 06:32:21;;;;;;;44.77;10.63;;;;;;;;;;5073600;28;20227;-41
2023/03/18 06:34:49;;;;;;;57.23;13.43;;;;;;;;;;5072127;28;20231;-45
2023/03/18 06:37:17;;;;;;;66.80;15.00;;;;;;;;;;5071490;28;20246;-46
2023/03/18 06:39:44;;;;;;;222.73;72.60;;;;;;;;;;5071600;28;20674;-43
2023/03/18 06:42:13;;;;;;;61.83;19.87;;;;;;;;;;5074645;28;20230;-41
2023/03/18 06:44:52;;;;;;;43.37;12.30;;;;;;;;;;5091579;28;20257;-44
2023/03/18 06:47:25;;;;;;;41.60;10.87;;;;;;;;;;5087035;28;20226;-45
2023/03/18 06:49:55;;;;;;;35.27;10.23;;;;;;;;;;5081253;28;20666;-45
2023/03/18 06:52:33;;;;;;;29.43;9.40;;;;;;;;;;5082851;28;20279;-45
2023/03/18 06:55:08;;;;;;;45.03;10.07;;;;;;;;;;5093180;28;20254;-46
2023/03/18 06:57:39;;;;;;;47.13;11.50;;;;;;;;;;5091220;28;20300;-45
2023/03/18 07:00:09;;;;;;;158.60;44.60;;;;;;;;;;5086232;28;20605;-43
2023/03/18 07:02:37;;;;;;;78.43;24.90;;;;;;;;;;5085820;28;20230;-45
2023/03/18 07:05:09;;;;;;;152.33;51.47;;;;;;;;;;5093249;28;20219;-45
2023/03/18 07:07:37;;;;;;;525.70;226.40;;;;;;;;;;5093872;28;20222;-45
2023/03/18 07:10:10;;;;;;;141.87;41.83;;;;;;;;;;5097834;28;20764;-45
2023/03/18 07:12:39;;;;;;;36.13;13.90;;;;;;;;;;5094506;28;20233;-47
2023/03/18 07:15:06;;;;;;;19.80;8.30;;;;;;;;;;5094475;28;20272;-45
2023/03/18 07:17:35;;;;;;;30.40;10.57;;;;;;;;;;5079210;28;20230;-46
2023/03/18 07:20:04;;;;;;;32.57;9.70;;;;;;;;;;5095321;28;20248;-45
2023/03/18 07:22:34;;;;;;;31.40;9.07;;;;;;;;;;5077111;28;20218;-46
2023/03/18 07:25:02;;;;;;;25.33;8.43;;;;;;;;;;5082259;28;20699;-47
2023/03/18 07:27:29;;;;;;;54.37;20.57;;;;;;;;;;5092324;28;20233;-44
2023/03/18 07:29:56;;;;;;;25.70;11.93;;;;;;;;;;5078890;28;20222;-45
2023/03/18 07:32:24;;;;;;;20.27;9.40;;;;;;;;;;5079188;28;20655;-45
2023/03/18 07:34:51;;;;;;;24.07;7.63;;;;;;;;;;5095793;28;20238;-45
2023/03/18 07:37:19;;;;;;;25.80;7.30;;;;;;;;;;5076437;28;20233;-44
2023/03/18 07:39:47;;;;;;;31.97;8.10;;;;;;;;;;5087208;28;20230;-45
2023/03/18 07:42:14;;;;;;;24.27;7.77;;;;;;;;;;5094353;28;20226;-45
2023/03/18 07:44:44;;;;;;;22.90;7.50;;;;;;;;;;5092370;28;20269;-45
2023/03/18 07:47:13;;;;;;;129.90;41.73;;;;;;;;;;5078666;28;20229;-45
2023/03/18 07:49:41;;;;;;;67.00;23.60;;;;;;;;;;5095849;28;20237;-46
2023/03/18 07:52:09;;;;;;;23.53;10.10;;;;;;;;;;5095984;28;20558;-43
2023/03/18 07:54:36;;;;;;;19.50;5.90;;;;;;;;;;5097534;28;20215;-45
2023/03/18 07:57:05;;;;;;;23.33;7.10;;;;;;;;;;5096970;28;20231;-47
2023/03/18 07:59:32;;;;;;;32.17;8.83;;;;;;;;;;5096925;28;21263;-47
2023/03/18 08:02:00;;;;;;;32.20;9.70;;;;;;;;;;5097342;28;20243;-45
2023/03/18 08:04:27;;;;;;;27.30;8.80;;;;;;;;;;5097044;28;20580;-45
2023/03/18 08:06:55;;;;;;;43.73;10.97;;;;;;;;;;5096938;28;20226;-46
2023/03/18 08:09:22;;;;;;;42.33;18.30;;;;;;;;;;5077159;28;20222;-45
2023/03/18 08:11:50;;;;;;;22.07;10.47;;;;;;;;;;5076775;28;20223;-49
2023/03/18 08:14:17;;;;;;;12.67;7.70;;;;;;;;;;5096449;28;20354;-45
2023/03/18 08:16:44;;;;;;;10.80;4.80;;;;;;;;;;5092555;28;20260;-44
2023/03/18 08:19:11;;;;;;;23.30;8.50;;;;;;;;;;5096883;28;20195;-44
2023/03/18 08:21:39;;;;;;;16.60;6.23;;;;;;;;;;5097634;28;20268;-45
2023/03/18 08:24:06;;;;;;;25.47;7.33;;;;;;;;;;5097070;28;20199;-43
2023/03/18 08:26:34;;;;;;;31.13;8.37;;;;;;;;;;5096627;28;20206;-44
2023/03/18 08:29:01;;;;;;;46.97;18.67;;;;;;;;;;5096033;28;20277;-42
2023/03/18 08:31:29;;;;;;;19.67;9.77;;;;;;;;;;5097173;28;20580;-44
2023/03/18 08:33:58;;;;;;;14.43;5.27;;;;;;;;;;5096995;28;20656;-41
2023/03/18 08:36:27;;;;;;;26.80;7.43;;;;;;;;;;5096815;28;20244;-43
2023/03/18 08:38:55;;;;;;;41.47;12.17;;;;;;;;;;5095292;28;20213;-44
2023/03/18 08:41:24;;;;;;;24.85;7.53;;;;;;;;;;5095564;28;20203;-41
2023/03/18 08:43:54;;;;;;;33.33;9.30;;;;;;;;;;5095376;28;20207;-41
2023/03/18 08:46:22;;;;;;;36.67;10.07;;;;;;;;;;5097252;28;20194;-42
2023/03/18 08:48:50;;;;;;;68.17;22.83;;;;;;;;;;5088634;28;20227;-41
2023/03/18 08:51:17;;;;;;;17.70;7.80;;;;;;;;;;5085335;28;20714;-42
2023/03/18 08:53:44;;;;;;;21.47;10.03;;;;;;;;;;5096589;28;20195;-46
2023/03/18 08:56:13;;;;;;;14.90;5.10;;;;;;;;;;5092349;28;20609;-41
2023/03/18 08:58:40;;;;;;;31.73;9.07;;;;;;;;;;5088033;28;20276;-43
2023/03/18 09:01:08;;;;;;;25.03;7.07;;;;;;;;;;5095447;28;20226;-45
2023/03/18 09:03:38;;;;;;;8.07;3.43;;;;;;;;;;5096361;28;20198;-44
2023/03/18 09:06:06;;;;;;;13.47;4.33;;;;;;;;;;5096485;28;20515;-44
2023/03/18 09:08:33;;;;;;;94.50;34.13;;;;;;;;;;5088193;28;20207;-43
2023/03/18 09:11:00;;;;;;;46.03;18.48;;;;;;;;;;5091751;28;20214;-43
2023/03/18 09:13:27;;;;;;;19.27;8.73;;;;;;;;;;5095849;28;20214;-43
2023/03/18 09:15:54;;;;;;;13.75;6.32;;;;;;;;;;5095944;28;20233;-45
2023/03/18 09:18:22;;;;;;;16.52;5.45;;;;;;;;;;5094212;28;20218;-44
2023/03/18 09:20:49;;;;;;;14.90;5.43;;;;;;;;;;5089933;28;20210;-44
2023/03/18 09:23:17;;;;;;;18.47;5.33;;;;;;;;;;5095041;28;20896;-45
2023/03/18 09:25:45;;;;;;;19.20;7.03;;;;;;;;;;5095128;28;20275;-44
2023/03/18 09:28:13;;;;;;;73.43;32.50;;;;;;;;;;5086258;28;20298;-45
2023/03/18 09:30:41;;;;;;;22.17;10.13;;;;;;;;;;5082590;28;20249;-45
2023/03/18 09:33:10;;;;;;;14.18;7.05;;;;;;;;;;5092076;28;20680;-45
2023/03/18 09:35:38;;;;;;;28.90;9.55;;;;;;;;;;5094959;28;20288;-45
2023/03/18 09:38:06;;;;;;;25.42;4.90;;;;;;;;;;5094972;28;20321;-45
2023/03/18 09:40:36;;;;;;;18.23;6.20;;;;;;;;;;5095393;28;20597;-44
2023/03/18 09:43:14;;;;;;;13.02;4.60;;;;;;;;;;5094899;28;20206;-44
2023/03/18 09:45:53;;;;;;;17.55;4.57;;;;;;;;;;5094910;28;20218;-45
2023/03/18 09:48:51;;;;;;;40.95;15.82;;;;;;;;;;5094046;28;20555;-45
2023/03/18 09:51:36;;;;;;;20.98;8.15;;;;;;;;;;5067704;28;20215;-45
2023/03/18 09:54:22;;;;;;;23.17;6.10;;;;;;;;;;5086999;28;20222;-48
2023/03/18 09:56:51;;;;;;;11.80;4.53;;;;;;;;;;5094197;28;20263;-44
2023/03/18 09:59:25;;;;;;;16.27;5.25;;;;;;;;;;5093657;28;20544;-45
2023/03/18 10:01:54;;;;;;;16.33;4.85;;;;;;;;;;5094021;28;20241;-45
2023/03/18 10:04:27;;;;;;;18.75;4.78;;;;;;;;;;5094035;28;20230;-44
2023/03/18 10:07:22;;;;;;;68.55;22.10;;;;;;;;;;5095080;27;20567;-42
2023/03/18 10:10:02;;;;;;;28.75;9.68;;;;;;;;;;5091183;28;20292;-42
2023/03/18 10:12:33;;;;;;;405.50;142.93;;;;;;;;;;5092949;28;20223;-42
2023/03/18 10:15:09;;;;;;;167.48;64.72;;;;;;;;;;5094048;28;20226;-43
2023/03/18 10:18:02;;;;;;;26.88;12.65;;;;;;;;;;5092917;28;20238;-43
2023/03/18 10:20:55;;;;;;;9.23;4.40;;;;;;;;;;5071118;28;20219;-43
2023/03/18 10:23:34;;;;;;;9.40;3.90;;;;;;;;;;5071861;28;20677;-42
2023/03/18 10:26:14;;;;;;;8.98;3.47;;;;;;;;;;5071062;28;20657;-45
2023/03/18 10:28:57;;;;;;;12.38;3.90;;;;;;;;;;5070877;28;20226;-44
2023/03/18 10:31:55;;;;;;;8.65;3.72;;;;;;;;;;5054793;28;20230;-42
2023/03/18 10:34:29;;;;;;;106.78;42.88;;;;;;;;;;5070933;28;20242;-42
2023/03/18 10:37:00;;;;;;;8.98;3.83;;;;;;;;;;5072095;28;20226;-43
2023/03/18 10:39:28;;;;;;;16.30;3.83;;;;;;;;;;5072387;28;20227;-42
2023/03/18 10:41:57;;;;;;;16.65;5.35;;;;;;;;;;5065565;28;20222;-42
2023/03/18 10:44:31;;;;;;;13.68;4.22;;;;;;;;;;5071892;28;20689;-42
2023/03/18 10:47:33;;;;;;;14.73;4.53;;;;;;;;;;5072165;28;20289;-42
2023/03/18 10:50:24;;;;;;;12.88;4.65;;;;;;;;;;4953784;29;20294;-42
2023/03/18 10:52:56;;;;;;;10.88;3.83;;;;;;;;;;4968750;28;20310;-42
2023/03/18 10:55:29;;;;;;;48.78;20.52;;;;;;;;;;4938317;29;20574;-42
2023/03/18 10:57:57;;;;;;;12.30;4.60;;;;;;;;;;4976881;28;20324;-41
2023/03/18 11:00:32;;;;;;;14.48;4.63;;;;;;;;;;4990934;28;20277;-43
2023/03/18 11:03:01;;;;;;;11.20;4.95;;;;;;;;;;4991034;28;20240;-43
2023/03/18 11:05:32;;;;;;;13.82;4.43;;;;;;;;;;4972696;28;20325;-42
2023/03/18 11:08:04;;;;;;;21.17;5.95;;;;;;;;;;4972704;28;20222;-43
2023/03/18 11:10:38;;;;;;;18.27;5.28;;;;;;;;;;4974315;28;20710;-44
2023/03/18 11:13:05;;;;;;;16.50;5.13;;;;;;;;;;4988485;28;20316;-43
2023/03/18 11:15:38;;;;;;;64.28;27.02;;;;;;;;;;4992843;28;20218;-45
2023/03/18 11:18:13;;;;;;;23.33;10.35;;;;;;;;;;4991743;28;20308;-44
2023/03/18 11:20:46;;;;;;;328.70;133.82;;;;;;;;;;4985497;28;20695;-45
2023/03/18 11:23:44;;;;;;;176.32;81.63;;;;;;;;;;4990080;28;20314;-45
2023/03/18 11:26:26;;;;;;;18.23;9.35;;;;;;;;;;5080426;28;20230;-44
2023/03/18 11:28:58;;;;;;;11.88;5.32;;;;;;;;;;5089830;28;20222;-42
2023/03/18 11:31:26;;;;;;;19.58;6.47;;;;;;;;;;5089679;28;20227;-42
2023/03/18 11:33:57;;;;;;;27.33;8.88;;;;;;;;;;5093727;28;20226;-45
2023/03/18 11:36:26;;;;;;;26.63;8.25;;;;;;;;;;5094848;28;20191;-45
2023/03/18 11:38:58;;;;;;;22.40;7.97;;;;;;;;;;5094624;28;20226;-44
2023/03/18 11:41:28;;;;;;;20.52;6.70;;;;;;;;;;5092607;28;20255;-45
2023/03/18 11:44:07;;;;;;;44.10;22.85;;;;;;;;;;5094363;28;20184;-44
2023/03/18 11:46:58;;;;;;;7.20;4.90;;;;;;;;;;5094337;28;20186;-45
2023/03/18 11:49:27;;;;;;;11.00;5.68;;;;;;;;;;5094247;28;20201;-42
2023/03/18 11:52:25;;;;;;;9.65;4.40;;;;;;;;;;5093528;28;20199;-42
2023/03/18 11:54:58;;;;;;;8.98;3.85;;;;;;;;;;5095774;28;20198;-42
2023/03/18 11:57:45;;;;;;;34.40;10.48;;;;;;;;;;5098237;28;20206;-43
2023/03/18 12:00:16;;;;;;;15.10;5.47;;;;;;;;;;5098441;28;20187;-42
2023/03/18 12:02:44;;;;;;;17.55;5.63;;;;;;;;;;5097622;28;20287;-42
2023/03/18 12:05:51;;;;;;;26.58;11.80;;;;;;;;;;5091616;28;20209;-44
2023/03/18 12:08:43;;;;;;;11.18;4.10;;;;;;;;;;5077501;28;20675;-46
2023/03/18 12:11:34;;;;;;;9.63;4.20;;;;;;;;;;5082182;28;20214;-45
2023/03/18 12:14:20;;;;;;;17.58;4.88;;;;;;;;;;5097626;28;20199;-44
2023/03/18 12:17:00;;;;;;;15.05;5.00;;;;;;;;;;5097579;28;20594;-44
2023/03/18 12:19:51;;;;;;;18.23;5.68;;;;;;;;;;5097151;28;20187;-44
2023/03/18 12:22:27;;;;;;;22.27;7.78;;;;;;;;;;5097453;28;20190;-44
2023/03/18 12:25:29;;;;;;;29.13;14.88;;;;;;;;;;5098069;28;20186;-44
2023/03/18 12:28:09;;;;;;;13.75;5.00;;;;;;;;;;5095256;28;20651;-44
2023/03/18 12:30:52;;;;;;;211.80;90.55;;;;;;;;;;5096778;28;20264;-44
2023/03/18 12:33:28;;;;;;;54.30;20.05;;;;;;;;;;5097098;28;20191;-44
2023/03/18 12:36:34;;;;;;;11.50;5.88;;;;;;;;;;5097836;28;20260;-44
2023/03/18 12:39:08;;;;;;;15.73;6.18;;;;;;;;;;5097245;28;20218;-42
2023/03/18 12:41:42;;;;;;;17.00;6.30;;;;;;;;;;5095876;28;20531;-42
2023/03/18 12:44:39;;;;;;;7.97;3.95;;;;;;;;;;5095112;28;20199;-43
2023/03/18 12:47:14;;;;;;;17.08;5.78;;;;;;;;;;5086467;28;20611;-40
2023/03/18 12:50:03;;;;;;;28.13;9.15;;;;;;;;;;5092479;28;20699;-41
2023/03/18 12:52:43;;;;;;;22.88;10.98;;;;;;;;;;5077110;28;20187;-43
2023/03/18 12:55:18;;;;;;;12.95;7.57;;;;;;;;;;5078219;28;20198;-43
2023/03/18 12:57:48;;;;;;;14.35;6.72;;;;;;;;;;5077673;28;20296;-43
2023/03/18 13:00:49;;;;;;;23.90;8.45;;;;;;;;;;5074184;28;20626;-42
2023/03/18 13:03:25;;;;;;;21.45;7.57;;;;;;;;;;5086531;28;20195;-43
2023/03/18 13:05:56;;;;;;;11.65;5.10;;;;;;;;;;5096309;28;20179;-42
2023/03/18 13:08:39;;;;;;;11.20;5.25;;;;;;;;;;5096564;28;20183;-42
2023/03/18 13:11:36;;;;;;;85.60;32.92;;;;;;;;;;5096232;28;20187;-43
2023/03/18 13:14:20;;;;;;;32.92;12.80;;;;;;;;;;5092714;28;20686;-45
2023/03/18 13:16:48;;;;;;;51.78;10.23;;;;;;;;;;5095983;28;20190;-44
2023/03/18 13:19:17;;;;;;;28.30;9.25;;;;;;;;;;5096139;28;20726;-44
2023/03/18 13:22:06;;;;;;;27.65;9.15;;;;;;;;;;5096418;28;20198;-45
2023/03/18 13:24:53;;;;;;;19.90;6.43;;;;;;;;;;5095751;28;20203;-45
2023/03/18 13:27:49;;;;;;;23.40;7.72;;;;;;;;;;5096436;28;20194;-47
2023/03/18 13:30:28;;;;;;;18.80;6.40;;;;;;;;;;5092474;28;20211;-46
2023/03/18 13:33:08;;;;;;;47.58;19.33;;;;;;;;;;5096106;28;20198;-45
2023/03/18 13:35:38;;;;;;;18.65;7.25;;;;;;;;;;5089977;28;20194;-44
2023/03/18 13:38:24;;;;;;;20.20;6.82;;;;;;;;;;5096115;28;20601;-45
2023/03/18 13:41:33;;;;;;;22.63;8.32;;;;;;;;;;5088539;28;20701;-44
2023/03/18 13:44:10;;;;;;;20.55;6.70;;;;;;;;;;5088600;28;20210;-44
2023/03/18 13:46:40;;;;;;;11.15;5.00;;;;;;;;;;5087961;28;20543;-46
2023/03/18 13:49:16;;;;;;;19.20;8.20;;;;;;;;;;5095008;28;20211;-43
2023/03/18 13:51:49;;;;;;;233.50;91.07;;;;;;;;;;5094746;28;20269;-44
2023/03/18 13:54:19;;;;;;;16.80;7.68;;;;;;;;;;5093012;28;20217;-45
2023/03/18 13:56:51;;;;;;;19.20;6.05;;;;;;;;;;5095920;28;20548;-44
2023/03/18 13:59:33;;;;;;;36.67;11.57;;;;;;;;;;5096004;28;20312;-44
2023/03/18 14:02:22;;;;;;;27.52;8.38;;;;;;;;;;5095765;28;20219;-45
2023/03/18 14:04:51;;;;;;;47.45;14.40;;;;;;;;;;5095453;28;20293;-41
2023/03/18 14:07:19;;;;;;;27.95;8.35;;;;;;;;;;5095046;28;20199;-42
2023/03/18 14:09:49;;;;;;;42.15;11.68;;;;;;;;;;5089639;28;20225;-41
2023/03/18 14:12:32;;;;;;;153.65;52.17;;;;;;;;;;5088663;28;20227;-41
2023/03/18 14:15:09;;;;;;;37.03;13.07;;;;;;;;;;5083132;28;20273;-42
2023/03/18 14:17:36;;;;;;;12.50;6.22;;;;;;;;;;5081214;28;20688;-42
2023/03/18 14:20:19;;;;;;;12.75;5.00;;;;;;;;;;5086053;28;20685;-43
2023/03/18 14:22:51;;;;;;;23.23;7.13;;;;;;;;;;5079126;28;20219;-43
2023/03/18 14:25:23;;;;;;;21.02;6.80;;;;;;;;;;5072959;28;20234;-41
2023/03/18 14:27:58;;;;;;;23.08;7.10;;;;;;;;;;5074118;28;20270;-41
2023/03/18 14:30:32;;;;;;;26.48;9.60;;;;;;;;;;5086046;28;20224;-43
2023/03/18 14:33:15;;;;;;;61.03;21.63;;;;;;;;;;5085796;28;20301;-43
2023/03/18 14:35:45;;;;;;;33.17;10.90;;;;;;;;;;5091155;28;20210;-46
2023/03/18 14:38:30;;;;;;;28.05;8.07;;;;;;;;;;5090215;28;20226;-43
2023/03/18 14:40:57;;;;;;;19.77;6.15;;;;;;;;;;5091127;28;20218;-42
2023/03/18 14:43:42;;;;;;;30.65;8.65;;;;;;;;;;5092835;28;20213;-43
2023/03/18 14:46:16;;;;;;;20.30;6.15;;;;;;;;;;5092418;28;20219;-44
2023/03/18 14:48:44;;;;;;;22.50;7.60;;;;;;;;;;5092342;28;20222;-43
2023/03/18 14:51:17;;;;;;;171.45;67.55;;;;;;;;;;5092867;28;20309;-43
2023/03/18 14:54:05;;;;;;;42.78;15.75;;;;;;;;;;5091478;28;20529;-43